TNCMGOOY

Guest
Details From TNCM - St Maarten - Princess Juliana Intl
To GOOY - Dakar Leopold Sedar Senghor Intl
Flight Number -
Tags generated
Created
Modified
Stats Distance 3,224 nm / 5,971 km
Max Altitude 35,000 ft / 10,668 m
Waypoints 15
Social Downloads 2
Likes 0
Share VATSIM

Download

Looking for another format? Having issues loading an existing format? Contact us
Advertisement - Login to hide

Notes

Basic altitude profile: - Ascent Rate: 2500ft/min - Ascent Speed: 250kts - Cruise Altitude: 35000ft - Cruise Speed: 420kts - Descent Rate: 1500ft/min - Descent Speed: 250kts Options: - Use NATs: yes - Use PACOTS: yes - Use low airways: yes - Use high airways: yes

Route

TNCM TOTEM A632 PISAX FIVZE L435 BUTUX UL435 PAKER 1700N03500W 1800N03000W UN741 GAMBA UR976 NARAT GOOY

ID Type Via Altitude Latitude Longitude Leg Dist Tot Dist Heading (true) Name
O TNCM APT - 0 ft / 0 m 18.04089˚ -63.10897˚ - 0 nm - St Maarten - Princess Juliana Intl
TOTEM FIX - 25,000 ft / 7,620 m 18.00000˚ -61.88367˚ 70 nm 70 nm 92° / 92° -
PISAX FIX A632 (AWY-HI) 34,000 ft / 10,363 m 23.50000˚ -62.54664˚ 332 nm 402 nm 354° / 353° -
FIVZE FIX - 35,000 ft / 10,668 m 25.00000˚ -60.00000˚ 166 nm 568 nm 57° / 58° -
BUTUX FIX L435 (AWY-HI) 35,000 ft / 10,668 m 18.00000˚ -45.38000˚ 917 nm 1486 nm 114° / 120° -
PAKER FIX UL435 (AWY-HI) 35,000 ft / 10,668 m 15.33333˚ -40.00000˚ 348 nm 1834 nm 117° / 118° -
1700N03500W LATLON - 35,000 ft / 10,668 m 17.00000˚ -35.00000˚ 305 nm 2140 nm 70° / 72° -
1800N03000W LATLON - 35,000 ft / 10,668 m 18.00000˚ -30.00000˚ 292 nm 2432 nm 77° / 79° -
GAMBA FIX UN741 (AWY-HI) 35,000 ft / 10,668 m 18.95333˚ -26.06000˚ 231 nm 2664 nm 75° / 76° -
IREDO FIX UR976 (AWY-HI) 35,000 ft / 10,668 m 17.71833˚ -24.30333˚ 124 nm 2788 nm 126° / 127° -
CVS VOR UR976 (AWY-HI) 35,000 ft / 10,668 m 16.73677˚ -22.95105˚ 97 nm 2886 nm 127° / 127° SAL VOR-DME
UGAMA FIX UR976 (AWY-HI) 35,000 ft / 10,668 m 16.28667˚ -21.67000˚ 78 nm 2964 nm 110° / 110° -
LUMPO FIX UR976 (AWY-HI) 33,400 ft / 10,180 m 15.68000˚ -20.00139˚ 102 nm 3067 nm 110° / 111° -
NARAT FIX UR976 (AWY-HI) 23,500 ft / 7,163 m 14.94333˚ -18.00000˚ 124 nm 3191 nm 111° / 111° -
O GOOY APT - 0 ft / 0 m 14.73971˚ -17.49023˚ 32 nm 3223 nm 112° / 113° Dakar Leopold Sedar Senghor Intl

Altitude Profile

Advertisement - Login to hide

Weather


0- 5 10 15 20 25 30 35+ Temperature / ° C

Clouds and Precipitation
Forecast for 2017-12-17 18:00 UTC. Updated an hour ago

Ground ~20,000 ft ~40,000 ft Winds

TNCM

Details ICAO TNCM (SXM)
Name St Maarten - Princess Juliana Intl
Region Caribbean Netherlands, Aruba, Curaçao, Sint Maarten
Timezone Unknown (UTC+0.0)
Stats Elevation 12 ft / 4 m (AMSL)
Location 18.040889° -63.108974°
Runways 1
Magnetic Variation 14.325° W

METAR

TNCM 171419Z 06015KT 030V110 9999 3000E SHRA BKN014TCU 24/23 Q1019 A3009 TEMPO SHRA RMK SHRA SE THRU SW/ TCU E/W

Decode

TAF

TAF TAF AMD TNCM 171404Z 1714/1812 06015G22KT P6SM VCSH SCT018 SCT035 TEMPO 1714/1716 -SHRA BKN014 FM172300 07012KT P6SM SCT022

Decode

Departure Runways

ID Width Length Bearing (true) Bearing (mag) Surface Threshold Offset Overrun Length
10 148 ft / 45 m 7,464 ft / 2,275 m 81.43° 95.76° Asphalt 0 ft / 0 m 151 ft / 46 m
28 148 ft / 45 m 7,464 ft / 2,275 m 261.44° 275.77° Asphalt 397 ft / 121 m 0 ft / 0 m

GOOY

Details ICAO GOOY (DKR)
Name Dakar Leopold Sedar Senghor Intl
Region Senegal
Timezone Africa/Dakar (UTC+0.0)
Stats Elevation 85 ft / 26 m (AMSL)
Location 14.739711° -17.490226°
Runways 2
Magnetic Variation 7.346° W

METAR

GOOY 171400Z 02014KT 8000 NSC 24/14 Q1014

Decode

TAF

TAF GOOY 171130Z 1712/1818 02012KT 8000 NSC= TAF GBYD 171130Z 1712/1818 04008KT CAVOK

Decode

Destination Runways

ID Width Length Bearing (true) Bearing (mag) Surface Threshold Offset Overrun Length
03 98 ft / 30 m 4,921 ft / 1,500 m 22.31° 29.66° Asphalt 0 ft / 0 m 98 ft / 30 m
18 148 ft / 45 m 11,511 ft / 3,509 m 172.57° 179.92° Asphalt 525 ft / 160 m 197 ft / 60 m
21 98 ft / 30 m 4,921 ft / 1,500 m 202.31° 209.66° Asphalt 0 ft / 0 m 1,590 ft / 485 m
36 148 ft / 45 m 11,511 ft / 3,509 m 352.57° 359.92° Asphalt 0 ft / 0 m 197 ft / 60 m

Approach Navaids

Runway Type Ident Frequency Range Bearing (true) Bearing (mag) Slope Elevation
36 Localiser YF 110.30 MHz 18 nm / 33 km 352.33° 359.67° - 65 ft / 20 m (AMSL)
36 Glidescope YF 110.30 MHz 10 nm / 19 km 352.57° 359.92° 3.01° 73 ft / 22 m (AMSL)
36 DME YF 110.30 MHz 18 nm / 33 km - - - 73 ft / 22 m (AMSL)

Popular Alternatives